createdAt,value
2018-12-26T00:00:58.348Z,14.80
2018-12-26T00:03:28.726Z,13.90
2018-12-26T00:05:59.292Z,15.37
2018-12-26T00:08:29.160Z,13.30
2018-12-26T00:10:59.517Z,14.20
2018-12-26T00:13:29.388Z,14.00
2018-12-26T00:15:59.346Z,12.80
2018-12-26T00:18:29.228Z,13.10
2018-12-26T00:20:59.169Z,13.83
2018-12-26T00:23:29.032Z,14.13
2018-12-26T00:26:01.749Z,14.47
2018-12-26T00:28:30.603Z,14.80
2018-12-26T00:31:00.494Z,13.37
2018-12-26T00:33:31.077Z,14.23
2018-12-26T00:36:01.023Z,13.33
2018-12-26T00:38:30.948Z,12.93
2018-12-26T00:41:00.905Z,13.77
2018-12-26T00:43:30.790Z,13.80
2018-12-26T00:46:01.578Z,14.63
2018-12-26T00:48:31.492Z,13.93
2018-12-26T00:51:01.898Z,14.60
2018-12-26T00:53:31.749Z,15.80
2018-12-26T00:56:10.226Z,15.63
2018-12-26T00:58:33.152Z,16.57
2018-12-26T01:01:03.093Z,16.73
2018-12-26T01:03:33.311Z,17.00
2018-12-26T01:06:03.237Z,15.67
2018-12-26T01:08:33.410Z,16.50
2018-12-26T01:11:03.332Z,17.03
2018-12-26T01:13:33.464Z,16.20
2018-12-26T01:16:03.351Z,17.10
2018-12-26T01:18:33.290Z,15.87
2018-12-26T01:21:03.273Z,16.00
2018-12-26T01:23:33.143Z,16.23
2018-12-26T01:26:03.003Z,18.80
2018-12-26T01:28:33.751Z,17.33
2018-12-26T01:31:03.710Z,18.07
2018-12-26T01:33:33.565Z,17.37
2018-12-26T01:36:03.570Z,17.07
2018-12-26T01:38:33.812Z,17.20
2018-12-26T01:41:03.688Z,16.90
2018-12-26T01:43:34.596Z,17.03
2018-12-26T01:46:04.550Z,15.47
2018-12-26T01:48:34.407Z,15.63
2018-12-26T01:51:04.258Z,17.07
2018-12-26T01:53:38.085Z,17.40
2018-12-26T01:56:07.978Z,15.43
2018-12-26T01:58:37.917Z,16.60
2018-12-26T02:01:07.777Z,16.57
2018-12-26T02:03:37.646Z,17.97
2018-12-26T02:06:07.652Z,16.67
2018-12-26T02:08:37.915Z,15.83
2018-12-26T02:11:07.882Z,15.73
2018-12-26T02:13:37.720Z,15.00
2018-12-26T02:16:07.665Z,16.37
2018-12-26T02:18:37.718Z,14.93
2018-12-26T02:21:07.623Z,15.70
2018-12-26T02:23:37.554Z,17.40
2018-12-26T02:26:07.451Z,17.53
2018-12-26T02:28:37.886Z,16.17
2018-12-26T02:31:07.769Z,15.60
2018-12-26T02:33:37.692Z,15.50
2018-12-26T02:36:07.851Z,18.23
2018-12-26T02:38:37.716Z,16.80
2018-12-26T02:41:07.576Z,17.57
2018-12-26T02:43:37.456Z,17.60
2018-12-26T02:46:07.331Z,16.83
2018-12-26T02:48:37.198Z,17.40
2018-12-26T02:51:07.531Z,16.77
2018-12-26T02:53:38.131Z,17.47
2018-12-26T02:56:08.180Z,16.90
2018-12-26T02:58:38.061Z,15.50
2018-12-26T03:01:08.035Z,15.90
2018-12-26T03:03:37.904Z,14.57
2018-12-26T03:06:08.274Z,15.77
2018-12-26T03:08:38.496Z,16.50
2018-12-26T03:11:08.662Z,16.60
2018-12-26T03:13:38.544Z,13.97
2018-12-26T03:16:08.684Z,14.87
2018-12-26T03:18:38.557Z,15.70
2018-12-26T03:21:08.409Z,16.07
2018-12-26T03:23:38.891Z,14.73
2018-12-26T03:26:08.755Z,15.07
2018-12-26T03:28:38.626Z,15.43
2018-12-26T03:31:08.805Z,15.10
2018-12-26T03:33:38.693Z,15.10
2018-12-26T03:36:08.562Z,15.37
2018-12-26T03:38:38.433Z,14.20
2018-12-26T03:41:08.361Z,15.03
2018-12-26T03:43:38.421Z,13.67
2018-12-26T03:46:08.365Z,15.10
2018-12-26T03:48:38.272Z,15.77
2018-12-26T03:51:08.235Z,15.43
2018-12-26T03:53:38.092Z,16.00
2018-12-26T03:56:08.108Z,14.83
2018-12-26T03:58:38.050Z,16.00
2018-12-26T04:01:08.886Z,14.40
2018-12-26T04:03:39.181Z,15.00
2018-12-26T04:06:09.037Z,16.40
2018-12-26T04:08:39.191Z,15.73
2018-12-26T04:11:09.041Z,17.00
2018-12-26T04:13:39.008Z,15.20
2018-12-26T04:16:08.939Z,13.87
2018-12-26T04:18:38.824Z,14.57
2018-12-26T04:21:08.750Z,15.40
2018-12-26T04:23:38.618Z,16.30
2018-12-26T04:26:08.551Z,15.43
2018-12-26T04:28:38.524Z,16.03
2018-12-26T04:31:08.363Z,16.23
2018-12-26T04:33:38.244Z,15.67
2018-12-26T04:36:08.481Z,15.03
2018-12-26T04:38:38.446Z,15.97
2018-12-26T04:41:08.344Z,15.20
2018-12-26T04:43:38.232Z,15.57
2018-12-26T04:46:08.095Z,16.43
2018-12-26T04:48:38.339Z,14.23
2018-12-26T04:51:08.179Z,15.73
2018-12-26T04:53:38.120Z,14.47
2018-12-26T04:56:08.118Z,14.57
2018-12-26T04:58:38.056Z,16.00
2018-12-26T05:01:08.023Z,15.90
2018-12-26T05:03:38.158Z,16.77
2018-12-26T05:06:08.005Z,16.80
2018-12-26T05:08:37.964Z,16.50
2018-12-26T05:11:07.813Z,16.67
2018-12-26T05:13:37.693Z,15.23
2018-12-26T05:16:07.815Z,16.20
2018-12-26T05:18:37.697Z,17.70
2018-12-26T05:21:07.571Z,18.00
2018-12-26T05:23:38.049Z,18.73
2018-12-26T05:26:07.890Z,15.43
2018-12-26T05:28:37.846Z,16.70
2018-12-26T05:31:07.766Z,15.97
2018-12-26T05:33:39.272Z,14.77
2018-12-26T05:36:09.169Z,15.80
2018-12-26T05:38:40.049Z,15.70
2018-12-26T05:41:09.880Z,16.10
2018-12-26T05:43:40.613Z,15.90
2018-12-26T05:46:10.475Z,16.90
2018-12-26T05:48:40.366Z,17.00
2018-12-26T05:51:11.107Z,15.67
2018-12-26T05:53:41.065Z,18.33
2018-12-26T05:56:10.931Z,17.03
2018-12-26T05:58:40.813Z,16.83
2018-12-26T06:01:10.690Z,14.97
2018-12-26T06:03:41.038Z,15.13
2018-12-26T06:06:10.872Z,18.57
2018-12-26T06:08:41.011Z,14.97
2018-12-26T06:11:11.296Z,16.90
2018-12-26T06:13:41.193Z,16.50
2018-12-26T06:16:11.120Z,17.00
2018-12-26T06:18:41.385Z,17.33
2018-12-26T06:21:11.923Z,18.47
2018-12-26T06:23:41.830Z,19.03
2018-12-26T06:26:11.703Z,18.20
2018-12-26T06:28:41.644Z,18.23
2018-12-26T06:31:11.489Z,15.77
2018-12-26T06:33:41.821Z,16.30
2018-12-26T06:36:11.674Z,16.73
2018-12-26T06:38:41.573Z,18.70
2018-12-26T06:41:11.441Z,16.70
2018-12-26T06:43:42.081Z,16.67
2018-12-26T06:46:11.985Z,17.27
2018-12-26T06:48:42.604Z,17.87
2018-12-26T06:51:12.858Z,16.03
2018-12-26T06:53:42.847Z,18.73
2018-12-26T06:56:12.693Z,17.63
2018-12-26T06:58:42.724Z,17.70
2018-12-26T07:01:13.316Z,17.40
2018-12-26T07:03:43.258Z,16.80
2018-12-26T07:06:13.232Z,17.37
2018-12-26T07:08:43.071Z,17.33
2018-12-26T07:11:12.968Z,17.70
2018-12-26T07:13:42.805Z,18.43
2018-12-26T07:16:14.452Z,16.10
2018-12-26T07:18:44.794Z,17.10
2018-12-26T07:21:15.063Z,18.30
2018-12-26T07:23:44.986Z,18.03
2018-12-26T07:26:15.599Z,18.20
2018-12-26T07:28:45.554Z,17.83
2018-12-26T07:31:15.530Z,19.00
2018-12-26T07:33:45.934Z,16.77
2018-12-26T07:36:15.816Z,16.90
2018-12-26T07:38:45.836Z,17.80
2018-12-26T07:41:15.730Z,19.87
2018-12-26T07:43:47.070Z,17.03
2018-12-26T07:46:17.029Z,19.50
2018-12-26T07:48:48.212Z,18.63
2018-12-26T07:51:18.422Z,18.63
2018-12-26T07:53:48.285Z,16.97
2018-12-26T07:56:18.256Z,18.93
2018-12-26T07:58:48.245Z,18.10
2018-12-26T08:01:18.046Z,16.40
2018-12-26T08:03:47.920Z,16.50
2018-12-26T08:06:18.090Z,16.37
2018-12-26T08:08:48.017Z,17.10
2018-12-26T08:11:19.130Z,18.63
2018-12-26T08:13:51.103Z,17.73
2018-12-26T08:16:21.775Z,17.90
2018-12-26T08:18:51.643Z,19.60
2018-12-26T08:21:21.516Z,21.10
2018-12-26T08:23:51.352Z,18.80
2018-12-26T08:26:21.628Z,15.90
2018-12-26T08:28:51.590Z,15.90
2018-12-26T08:31:21.477Z,15.00
2018-12-26T08:33:51.719Z,16.70
2018-12-26T08:36:21.706Z,14.13
2018-12-26T08:38:51.567Z,13.07
2018-12-26T08:41:21.658Z,13.70
2018-12-26T08:43:51.740Z,14.93
2018-12-26T08:46:21.612Z,14.07
2018-12-26T08:48:51.554Z,15.20
2018-12-26T08:51:21.435Z,15.40
2018-12-26T08:53:51.354Z,14.97
2018-12-26T08:56:21.216Z,14.07
2018-12-26T08:58:51.065Z,14.87
2018-12-26T09:01:21.207Z,14.80
2018-12-26T09:03:51.199Z,13.27
2018-12-26T09:06:21.107Z,13.90
2018-12-26T09:08:51.143Z,14.87
2018-12-26T09:11:21.008Z,15.90
2018-12-26T09:13:50.894Z,14.70
2018-12-26T09:16:20.765Z,14.30
2018-12-26T09:18:50.706Z,14.10
2018-12-26T09:21:20.947Z,13.40
2018-12-26T09:23:50.904Z,12.67
2018-12-26T09:26:21.108Z,13.97
2018-12-26T09:28:51.058Z,12.97
2018-12-26T09:31:21.239Z,14.20
2018-12-26T09:33:51.101Z,11.63
2018-12-26T09:36:21.017Z,12.00
2018-12-26T09:38:52.235Z,11.00
2018-12-26T09:41:22.149Z,9.83
2018-12-26T09:43:52.107Z,12.30
2018-12-26T09:46:22.336Z,10.90
2018-12-26T09:48:52.324Z,11.97
2018-12-26T09:51:22.263Z,10.87
2018-12-26T09:53:52.431Z,11.20
2018-12-26T09:56:22.733Z,12.50
2018-12-26T09:58:52.918Z,10.77
2018-12-26T10:01:22.805Z,12.70
2018-12-26T10:03:53.687Z,13.40
2018-12-26T10:06:23.548Z,12.47
2018-12-26T10:08:53.441Z,12.33
2018-12-26T10:11:23.292Z,12.30
2018-12-26T10:13:53.169Z,12.47
2018-12-26T10:16:23.059Z,13.57
2018-12-26T10:18:53.324Z,13.37
2018-12-26T10:21:23.254Z,12.33
2018-12-26T10:23:53.269Z,13.03
2018-12-26T10:26:23.770Z,13.13
2018-12-26T10:29:00.989Z,13.20
2018-12-26T10:31:31.717Z,13.87
2018-12-26T10:34:15.165Z,13.70
2018-12-26T10:36:50.039Z,15.60
2018-12-26T10:39:22.271Z,15.50
2018-12-26T10:41:55.783Z,14.27
2018-12-26T10:44:26.892Z,13.70
2018-12-26T10:46:59.430Z,13.80
2018-12-26T10:49:32.156Z,14.10
2018-12-26T10:52:06.651Z,15.87
2018-12-26T10:54:40.064Z,12.90
2018-12-26T10:57:10.049Z,12.80
2018-12-26T10:59:42.734Z,15.10
2018-12-26T11:02:15.125Z,14.80
2018-12-26T11:04:59.193Z,14.37
2018-12-26T11:07:38.972Z,15.80
2018-12-26T11:10:08.108Z,14.83
2018-12-26T11:12:40.502Z,14.27
2018-12-26T11:15:16.173Z,15.63
2018-12-26T11:17:48.848Z,17.67
2018-12-26T11:20:26.786Z,15.40
2018-12-26T11:23:09.878Z,15.63
2018-12-26T11:25:45.481Z,16.40
2018-12-26T11:28:21.230Z,16.77
2018-12-26T11:30:51.582Z,17.77
2018-12-26T11:33:21.627Z,17.03
2018-12-26T11:35:51.894Z,19.00
2018-12-26T11:38:22.150Z,15.53
2018-12-26T11:40:52.001Z,17.00
2018-12-26T11:43:21.914Z,17.43
2018-12-26T11:45:51.774Z,17.47
2018-12-26T11:48:21.693Z,16.30
2018-12-26T11:50:51.569Z,18.73
2018-12-26T11:53:21.425Z,16.37
2018-12-26T11:55:52.835Z,19.00
2018-12-26T11:58:24.397Z,17.67
2018-12-26T12:00:56.857Z,16.50
2018-12-26T12:03:28.721Z,16.50
2018-12-26T12:06:00.511Z,15.80
2018-12-26T12:08:30.892Z,16.30
2018-12-26T12:11:02.197Z,16.80
2018-12-26T12:13:35.748Z,15.90
2018-12-26T12:16:07.882Z,15.60
2018-12-26T12:18:39.095Z,15.17
2018-12-26T12:21:09.563Z,16.43
2018-12-26T12:23:41.344Z,17.27
2018-12-26T12:26:13.387Z,15.67
2018-12-26T12:28:46.884Z,16.53
2018-12-26T12:31:19.415Z,17.60
2018-12-26T12:33:51.929Z,15.43
2018-12-26T12:36:23.057Z,17.83
2018-12-26T12:38:53.986Z,17.57
2018-12-26T12:41:25.516Z,18.87
2018-12-26T12:43:56.131Z,17.20
2018-12-26T12:46:27.910Z,19.10
2018-12-26T12:48:59.305Z,17.13
2018-12-26T12:51:29.803Z,16.50
2018-12-26T12:54:01.969Z,16.10
2018-12-26T12:56:32.805Z,15.67
2018-12-26T12:59:02.622Z,16.20
2018-12-26T13:01:32.521Z,15.23
2018-12-26T13:04:03.438Z,15.60
2018-12-26T13:06:37.027Z,15.40
2018-12-26T13:09:07.871Z,16.10
2018-12-26T13:11:37.738Z,14.60
2018-12-26T13:14:07.597Z,15.90
2018-12-26T13:16:37.499Z,17.07
2018-12-26T13:19:07.426Z,15.10
2018-12-26T13:21:37.599Z,17.37
2018-12-26T13:24:07.556Z,15.70
2018-12-26T13:26:37.436Z,17.60
2018-12-26T13:29:07.394Z,16.83
2018-12-26T13:31:37.396Z,17.07
2018-12-26T13:34:07.453Z,16.77
2018-12-26T13:36:37.740Z,16.17
2018-12-26T13:39:07.683Z,16.27
2018-12-26T13:41:37.922Z,16.97
2018-12-26T13:44:07.899Z,16.23
2018-12-26T13:46:37.845Z,18.47
2018-12-26T13:49:07.694Z,18.10
2018-12-26T13:51:37.586Z,18.17
2018-12-26T13:54:07.410Z,19.50
2018-12-26T13:56:37.280Z,21.43
2018-12-26T13:59:07.197Z,20.20
2018-12-26T14:01:37.101Z,17.20
2018-12-26T14:04:07.027Z,16.07
2018-12-26T14:06:36.886Z,18.10
2018-12-26T14:09:06.745Z,19.10
2018-12-26T14:11:36.601Z,18.53
2018-12-26T14:14:06.452Z,20.00
2018-12-26T14:16:36.334Z,20.83
2018-12-26T14:19:06.176Z,17.67
2018-12-26T14:21:36.765Z,18.23
2018-12-26T14:24:06.928Z,16.37
2018-12-26T14:26:37.197Z,17.53
2018-12-26T14:29:07.091Z,18.17
2018-12-26T14:31:36.920Z,17.07
2018-12-26T14:34:06.795Z,21.10
2018-12-26T14:36:36.908Z,18.80
2018-12-26T14:39:07.949Z,16.63
2018-12-26T14:41:37.787Z,17.37
2018-12-26T14:44:07.683Z,18.80
2018-12-26T14:46:37.535Z,18.10
2018-12-26T14:49:07.474Z,17.60
2018-12-26T14:51:37.327Z,18.30
2018-12-26T14:54:07.293Z,17.27
2018-12-26T14:56:37.128Z,17.80
2018-12-26T14:59:07.014Z,16.03
2018-12-26T15:01:36.868Z,17.70
2018-12-26T15:04:06.740Z,17.90
2018-12-26T15:06:36.604Z,16.97
2018-12-26T15:09:07.948Z,18.30
2018-12-26T15:11:38.142Z,16.90
2018-12-26T15:14:08.325Z,17.50
2018-12-26T15:16:38.192Z,16.80
2018-12-26T15:19:18.885Z,17.07
2018-12-26T15:21:48.730Z,17.03
2018-12-26T15:24:18.596Z,17.77
2018-12-26T15:26:48.859Z,18.20
2018-12-26T15:29:19.768Z,19.97
2018-12-26T15:31:49.630Z,18.63
2018-12-26T15:34:19.648Z,18.00
2018-12-26T15:36:49.955Z,17.93
2018-12-26T15:39:19.905Z,18.30
2018-12-26T15:41:49.809Z,17.47
2018-12-26T15:44:19.635Z,16.70
2018-12-26T15:46:50.221Z,20.80
2018-12-26T15:49:20.169Z,22.10
2018-12-26T15:51:50.045Z,22.07
2018-12-26T15:54:19.993Z,21.63
2018-12-26T15:56:49.836Z,20.90
2018-12-26T15:59:19.776Z,20.53
2018-12-26T16:01:49.637Z,18.30
2018-12-26T16:04:20.591Z,19.70
2018-12-26T16:06:50.440Z,17.20
2018-12-26T16:09:20.993Z,19.60
2018-12-26T16:11:51.417Z,18.27
2018-12-26T16:14:21.288Z,17.80
2018-12-26T16:16:52.627Z,19.80
2018-12-26T16:19:22.989Z,19.57
2018-12-26T16:21:52.913Z,19.53
2018-12-26T16:24:22.883Z,20.27
2018-12-26T16:26:52.901Z,20.60
2018-12-26T16:29:22.905Z,22.90
2018-12-26T16:31:52.859Z,21.17
2018-12-26T16:34:22.728Z,19.77
2018-12-26T16:36:52.582Z,18.97
2018-12-26T16:39:23.064Z,19.67
2018-12-26T16:41:52.986Z,19.47
2018-12-26T16:44:23.886Z,17.10
2018-12-26T16:46:55.611Z,19.77
2018-12-26T16:49:25.481Z,19.70
2018-12-26T16:51:55.409Z,17.43
2018-12-26T16:54:25.845Z,17.80
2018-12-26T16:56:55.780Z,17.33
2018-12-26T16:59:25.814Z,18.10
2018-12-26T17:01:56.044Z,18.27
2018-12-26T17:04:26.296Z,17.73
2018-12-26T17:06:56.218Z,19.20
2018-12-26T17:09:26.883Z,18.77
2018-12-26T17:11:58.411Z,18.30
2018-12-26T17:14:28.584Z,18.17
2018-12-26T17:16:58.612Z,17.77
2018-12-26T17:19:28.503Z,18.80
2018-12-26T17:21:58.385Z,19.30
2018-12-26T17:24:28.373Z,20.37
2018-12-26T17:26:58.248Z,16.77
2018-12-26T17:29:28.622Z,19.37
2018-12-26T17:31:58.491Z,18.60
2018-12-26T17:34:28.345Z,19.27
2018-12-26T17:36:58.225Z,18.77
2018-12-26T17:39:28.183Z,17.87
2018-12-26T17:41:58.147Z,16.50
2018-12-26T17:44:28.454Z,17.30
2018-12-26T17:46:59.263Z,18.07
2018-12-26T17:49:29.113Z,17.10
2018-12-26T17:51:59.078Z,19.57
2018-12-26T17:54:59.870Z,12.83
2018-12-26T17:57:37.305Z,15.37
2018-12-26T18:00:32.977Z,16.13
2018-12-26T18:03:03.182Z,15.77
2018-12-26T18:05:33.359Z,15.40
2018-12-26T18:08:03.517Z,16.83
2018-12-26T18:10:33.428Z,16.77
2018-12-26T18:13:04.262Z,18.27
2018-12-26T18:15:34.145Z,15.83
2018-12-26T18:18:04.370Z,17.40
2018-12-26T18:20:34.254Z,16.17
2018-12-26T18:23:04.120Z,17.27
2018-12-26T18:25:33.975Z,17.30
2018-12-26T18:28:03.911Z,17.50
2018-12-26T18:30:33.769Z,17.10
2018-12-26T18:33:03.636Z,18.17
2018-12-26T18:35:34.313Z,18.70
2018-12-26T18:38:04.229Z,17.23
2018-12-26T18:40:34.077Z,17.00
2018-12-26T18:43:04.256Z,14.03
2018-12-26T18:45:34.281Z,17.40
2018-12-26T18:48:04.208Z,16.70
2018-12-26T18:50:34.088Z,16.13
2018-12-26T18:53:04.028Z,17.70
2018-12-26T18:55:33.946Z,17.40
2018-12-26T18:58:03.871Z,17.13
2018-12-26T19:00:33.735Z,18.70
2018-12-26T19:03:03.619Z,15.87
2018-12-26T19:05:33.456Z,25.40
2018-12-26T19:08:03.499Z,33.07
2018-12-26T19:10:33.351Z,18.17
2018-12-26T19:13:03.817Z,18.33
2018-12-26T19:15:33.669Z,16.67
2018-12-26T19:18:03.545Z,16.50
2018-12-26T19:20:33.793Z,16.63
2018-12-26T19:23:03.661Z,15.47
2018-12-26T19:25:33.574Z,15.57
2018-12-26T19:28:03.510Z,16.30
2018-12-26T19:30:33.357Z,17.80
2018-12-26T19:33:03.345Z,18.23
2018-12-26T19:35:33.581Z,17.63
2018-12-26T19:38:03.474Z,17.30
2018-12-26T19:40:33.324Z,17.43
2018-12-26T19:43:03.649Z,20.10
2018-12-26T19:45:33.913Z,18.00
2018-12-26T19:48:03.788Z,14.67
2018-12-26T19:50:33.704Z,20.03
2018-12-26T19:53:05.318Z,16.13
2018-12-26T19:55:35.425Z,16.80
2018-12-26T19:58:05.359Z,15.00
2018-12-26T20:00:35.287Z,15.67
2018-12-26T20:03:05.728Z,18.30
2018-12-26T20:05:35.670Z,16.17
2018-12-26T20:08:05.540Z,20.03
2018-12-26T20:10:35.488Z,17.80
2018-12-26T20:13:05.407Z,15.73
2018-12-26T20:15:35.272Z,14.53
2018-12-26T20:18:05.225Z,15.30
2018-12-26T20:20:35.080Z,17.00
2018-12-26T20:23:05.136Z,18.53
2018-12-26T20:25:34.982Z,17.60
2018-12-26T20:28:04.884Z,17.63
2018-12-26T20:30:34.746Z,16.30
2018-12-26T20:33:05.021Z,16.63
2018-12-26T20:35:34.894Z,17.13
2018-12-26T20:38:04.748Z,18.03
2018-12-26T20:40:34.628Z,19.23
2018-12-26T20:43:04.813Z,19.87
2018-12-26T20:45:38.051Z,20.90
2018-12-26T20:48:08.021Z,20.10
2018-12-26T20:50:38.700Z,20.50
2018-12-26T20:53:08.563Z,21.70
2018-12-26T20:55:38.615Z,22.37
2018-12-26T20:58:08.833Z,21.73
2018-12-26T21:00:38.977Z,24.97
2018-12-26T21:03:08.856Z,24.20
2018-12-26T21:05:38.824Z,24.10
2018-12-26T21:08:08.750Z,22.13
2018-12-26T21:10:40.265Z,22.57
2018-12-26T21:13:10.256Z,21.60
2018-12-26T21:15:41.019Z,23.73
2018-12-26T21:18:10.866Z,23.73
2018-12-26T21:20:40.762Z,24.90
2018-12-26T21:23:10.964Z,23.10
2018-12-26T21:25:40.829Z,24.63
2018-12-26T21:28:10.679Z,22.07
2018-12-26T21:30:40.937Z,24.63
2018-12-26T21:33:10.781Z,22.07
2018-12-26T21:35:40.670Z,23.60
2018-12-26T21:38:10.518Z,22.50
2018-12-26T21:40:40.825Z,23.93
2018-12-26T21:43:10.670Z,25.10
2018-12-26T21:45:40.569Z,23.17
2018-12-26T21:48:10.882Z,22.20
2018-12-26T21:50:40.855Z,22.13
2018-12-26T21:53:11.014Z,22.50
2018-12-26T21:55:41.225Z,23.80
2018-12-26T21:58:11.153Z,22.30
2018-12-26T22:00:41.009Z,20.97
2018-12-26T22:03:10.960Z,20.80
2018-12-26T22:05:41.165Z,20.73
2018-12-26T22:08:11.027Z,21.70
2018-12-26T22:10:40.893Z,20.57
2018-12-26T22:13:10.744Z,19.63
2018-12-26T22:15:40.692Z,21.57
2018-12-26T22:18:10.584Z,20.80
2018-12-26T22:20:41.008Z,21.90
2018-12-26T22:23:10.949Z,22.30
2018-12-26T22:25:42.139Z,23.60
2018-12-26T22:28:12.006Z,21.73
2018-12-26T22:30:41.892Z,21.20
2018-12-26T22:33:11.773Z,21.27
2018-12-26T22:35:41.919Z,21.93
2018-12-26T22:38:12.215Z,24.37
2018-12-26T22:40:42.634Z,23.90
2018-12-26T22:43:12.946Z,22.70
2018-12-26T22:45:44.122Z,25.23
2018-12-26T22:48:14.195Z,24.00
2018-12-26T22:50:45.646Z,24.07
2018-12-26T22:53:17.305Z,22.47
2018-12-26T22:55:47.160Z,26.23
2018-12-26T22:58:17.029Z,25.07
2018-12-26T23:00:47.757Z,23.77
2018-12-26T23:03:17.644Z,24.50
2018-12-26T23:05:47.495Z,26.33
2018-12-26T23:08:17.429Z,26.87
2018-12-26T23:10:47.437Z,22.83
2018-12-26T23:13:17.395Z,24.20
2018-12-26T23:15:47.559Z,21.30
2018-12-26T23:18:18.722Z,21.30
2018-12-26T23:20:48.644Z,21.00
2018-12-26T23:23:18.540Z,23.37
2018-12-26T23:25:48.385Z,21.43
2018-12-26T23:28:18.576Z,23.47
2018-12-26T23:30:48.431Z,25.20
2018-12-26T23:33:18.750Z,23.33
2018-12-26T23:35:48.619Z,23.40
2018-12-26T23:38:18.585Z,24.27
2018-12-26T23:40:48.454Z,24.77
2018-12-26T23:43:18.328Z,21.63
2018-12-26T23:45:48.240Z,25.23
2018-12-26T23:48:18.119Z,23.57
2018-12-26T23:50:47.981Z,24.93
2018-12-26T23:53:18.711Z,25.37
2018-12-26T23:55:48.573Z,26.03
2018-12-26T23:58:18.445Z,24.97
